Time;durP1;ratioP1;P1;durP2;ratioP2;P2;SDS_P1;SDS_P2;PMS_P1;PMS_P2;Temp;Humidity;BMP_temperature;BMP_pressure;BME280_temperature;BME280_humidity;BME280_pressure;Samples;Min_cycle;Max_cycle;Signal;HPM_P1;HPM_P2
2022/08/25 00:01:00;;;;;;;;;;;21.00;90.70;;;;;;4909506;29;19962;-78
2022/08/25 00:03:27;;;;;;;;;;;21.00;90.70;;;;;;4909882;29;20404;-78
2022/08/25 00:05:54;;;;;;;;;;;21.00;90.80;;;;;;4888448;29;19958;-78
2022/08/25 00:08:21;;;;;;;;;;;21.00;90.80;;;;;;4910994;29;19935;-78
2022/08/25 00:10:48;;;;;;;;;;;20.90;90.70;;;;;;4907690;29;20406;-76
2022/08/25 00:13:14;;;;;;;;;;;20.90;90.80;;;;;;4891682;29;19927;-77
2022/08/25 00:15:42;;;;;;;;;;;20.90;90.80;;;;;;4908486;29;19987;-76
2022/08/25 00:18:09;;;;;;;;;;;20.90;90.80;;;;;;4904875;29;20362;-78
2022/08/25 00:20:36;;;;;;;;;;;20.80;90.80;;;;;;4896625;29;19982;-76
2022/08/25 00:23:03;;;;;;;;;;;20.90;90.80;;;;;;4907304;29;20026;-76
2022/08/25 00:25:30;;;;;;;;;;;20.80;90.90;;;;;;4909703;29;19963;-76
2022/08/25 00:27:57;;;;;;;;;;;20.80;90.90;;;;;;4908966;29;20408;-76
2022/08/25 00:30:24;;;;;;;;;;;20.80;90.90;;;;;;4906733;29;19937;-76
2022/08/25 00:32:52;;;;;;;;;;;20.80;90.90;;;;;;4891636;29;20155;-76
2022/08/25 00:35:19;;;;;;;;;;;20.80;90.90;;;;;;4921897;29;20437;-76
2022/08/25 00:37:46;;;;;;;;;;;20.80;90.90;;;;;;4908964;29;19934;-76
2022/08/25 00:40:13;;;;;;;;;;;20.70;90.80;;;;;;4906169;29;20034;-77
2022/08/25 00:42:40;;;;;;;;;;;20.70;90.90;;;;;;4903348;29;19983;-76
2022/08/25 00:45:07;;;;;;;;;;;20.70;91.20;;;;;;4903614;29;20306;-76
2022/08/25 00:47:34;;;;;;;;;;;20.70;90.90;;;;;;4910995;29;20296;-77
2022/08/25 00:50:05;;;;;;;;;;;20.70;90.90;;;;;;4907432;29;19931;-76
2022/08/25 00:52:33;;;;;;;;;;;20.70;91.00;;;;;;4905042;29;19927;-77
2022/08/25 00:55:02;;;;;;;;;;;20.60;91.00;;;;;;4893515;29;19935;-76
2022/08/25 00:57:30;;;;;;;;;;;20.60;91.00;;;;;;4912858;29;19927;-76
2022/08/25 00:59:57;;;;;;;;;;;20.60;91.00;;;;;;4909364;29;20046;-76
2022/08/25 01:02:24;;;;;;;;;;;20.60;91.00;;;;;;4904177;29;19927;-76
2022/08/25 01:04:51;;;;;;;;;;;20.60;91.00;;;;;;4905763;29;20063;-76
2022/08/25 01:07:21;;;;;;;;;;;20.60;91.00;;;;;;4909011;29;20378;-76
2022/08/25 01:09:49;;;;;;;;;;;20.60;91.00;;;;;;4890920;29;20030;-76
2022/08/25 01:12:16;;;;;;;;;;;20.50;91.00;;;;;;4905620;29;19955;-76
2022/08/25 01:14:44;;;;;;;;;;;20.50;91.00;;;;;;4906489;29;20439;-76
2022/08/25 01:17:11;;;;;;;;;;;20.50;91.00;;;;;;4910344;29;19935;-76
2022/08/25 01:19:38;;;;;;;;;;;20.50;91.00;;;;;;4901184;29;19939;-77
2022/08/25 01:22:06;;;;;;;;;;;20.50;91.00;;;;;;4906870;29;20014;-76
2022/08/25 01:24:37;;;;;;;;;;;20.50;91.00;;;;;;4913135;29;19931;-76
2022/08/25 01:27:04;;;;;;;;;;;20.50;91.00;;;;;;4906820;29;19928;-76
2022/08/25 01:29:32;;;;;;;;;;;20.40;91.00;;;;;;4902722;29;19927;-76
2022/08/25 01:32:00;;;;;;;;;;;20.40;91.00;;;;;;4890151;29;19990;-76
2022/08/25 01:34:28;;;;;;;;;;;20.40;91.10;;;;;;4908445;29;20469;-76
2022/08/25 01:36:56;;;;;;;;;;;20.40;91.10;;;;;;4907218;29;20362;-76
2022/08/25 01:39:24;;;;;;;;;;;20.40;91.10;;;;;;4906303;29;19974;-76
2022/08/25 01:41:58;;;;;;;;;;;20.40;91.10;;;;;;4904563;29;19935;-77
2022/08/25 01:44:25;;;;;;;;;;;20.30;91.20;;;;;;4904872;29;20853;-76
2022/08/25 01:46:53;;;;;;;;;;;20.30;91.20;;;;;;4909397;29;19971;-76
2022/08/25 01:49:20;;;;;;;;;;;20.30;91.30;;;;;;4918720;29;19936;-76
2022/08/25 01:51:48;;;;;;;;;;;20.30;91.30;;;;;;4905146;29;19927;-76
2022/08/25 01:54:15;;;;;;;;;;;20.30;91.30;;;;;;4921056;29;20045;-76
2022/08/25 01:56:43;;;;;;;;;;;20.30;91.30;;;;;;4910845;29;20014;-76
2022/08/25 01:59:10;;;;;;;;;;;20.30;91.30;;;;;;4910508;29;19983;-76
2022/08/25 02:01:37;;;;;;;;;;;20.30;91.30;;;;;;4907891;29;20414;-76
2022/08/25 02:04:05;;;;;;;;;;;20.30;91.40;;;;;;4886446;29;19934;-76
2022/08/25 02:06:32;;;;;;;;;;;20.20;91.40;;;;;;4906937;29;20406;-76
2022/08/25 02:09:00;;;;;;;;;;;20.20;91.40;;;;;;4906478;29;20019;-76
2022/08/25 02:11:27;;;;;;;;;;;20.20;91.50;;;;;;4903037;29;19954;-76
2022/08/25 02:13:55;;;;;;;;;;;20.20;91.60;;;;;;4906739;29;20291;-76
2022/08/25 02:16:24;;;;;;;;;;;20.10;91.60;;;;;;4904844;29;19927;-76
2022/08/25 02:18:51;;;;;;;;;;;20.10;91.60;;;;;;4898765;29;19927;-76
2022/08/25 02:21:18;;;;;;;;;;;20.10;91.70;;;;;;4917063;29;20299;-76
2022/08/25 02:23:45;;;;;;;;;;;20.10;91.60;;;;;;4907585;29;19931;-76
2022/08/25 02:26:15;;;;;;;;;;;20.10;91.60;;;;;;4906577;29;19978;-76
2022/08/25 02:28:45;;;;;;;;;;;20.10;91.60;;;;;;4884903;29;19935;-76
2022/08/25 02:31:13;;;;;;;;;;;20.10;91.60;;;;;;4915981;29;19931;-76
2022/08/25 02:33:40;;;;;;;;;;;20.10;91.60;;;;;;4886595;29;19970;-76
2022/08/25 02:36:07;;;;;;;;;;;20.10;91.60;;;;;;4905233;29;19955;-76
2022/08/25 02:38:34;;;;;;;;;;;20.10;91.60;;;;;;4885019;29;20006;-76
2022/08/25 02:41:08;;;;;;;;;;;20.00;91.50;;;;;;4884459;29;19935;-76
2022/08/25 02:43:34;;;;;;;;;;;20.00;91.50;;;;;;4922317;29;20029;-76
2022/08/25 02:46:01;;;;;;;;;;;20.00;91.60;;;;;;4903475;29;19935;-76
2022/08/25 02:48:29;;;;;;;;;;;20.00;91.60;;;;;;4894123;29;19927;-76
2022/08/25 02:50:59;;;;;;;;;;;20.00;91.60;;;;;;4914963;29;19927;-76
2022/08/25 02:53:27;;;;;;;;;;;20.00;91.50;;;;;;4885706;29;19978;-76
2022/08/25 02:55:54;;;;;;;;;;;19.90;91.50;;;;;;4906829;29;19977;-76
2022/08/25 02:58:20;;;;;;;;;;;19.90;91.50;;;;;;4908374;29;20313;-76
2022/08/25 03:00:48;;;;;;;;;;;19.90;91.50;;;;;;4903872;29;20010;-76
2022/08/25 03:03:15;;;;;;;;;;;19.90;91.50;;;;;;4886764;29;20397;-76
2022/08/25 03:05:43;;;;;;;;;;;19.90;91.50;;;;;;4905147;29;19927;-76
2022/08/25 03:08:10;;;;;;;;;;;19.90;91.50;;;;;;4905345;29;19927;-76
2022/08/25 03:10:37;;;;;;;;;;;19.90;91.50;;;;;;4908790;29;19927;-76
2022/08/25 03:13:04;;;;;;;;;;;19.90;91.50;;;;;;4886499;29;20393;-76
2022/08/25 03:15:32;;;;;;;;;;;19.90;91.50;;;;;;4904087;29;20157;-76
2022/08/25 03:18:00;;;;;;;;;;;19.80;91.50;;;;;;4913024;29;19941;-76
2022/08/25 03:20:27;;;;;;;;;;;19.80;91.50;;;;;;4904746;29;20468;-76
2022/08/25 03:22:56;;;;;;;;;;;19.80;91.50;;;;;;4890643;29;19928;-76
2022/08/25 03:28:09;;;;;;;;;;;19.80;91.50;;;;;;4998338;23;19931;-76
2022/08/25 03:33:03;;;;;;;;;;;19.80;91.60;;;;;;4942363;23;19934;-76
2022/08/25 03:38:00;;;;;;;;;;;19.70;91.60;;;;;;4950231;23;20400;-76
2022/08/25 03:40:27;;;;;;;;;;;19.70;91.60;;;;;;4945298;23;19926;-76
2022/08/25 03:45:23;;;;;;;;;;;19.60;91.50;;;;;;4967973;28;19930;-76
2022/08/25 03:47:50;;;;;;;;;;;19.70;91.60;;;;;;4932233;28;19926;-76
2022/08/25 03:50:18;;;;;;;;;;;19.60;91.50;;;;;;4946831;28;19935;-76
2022/08/25 03:52:45;;;;;;;;;;;19.60;91.50;;;;;;4944150;28;19930;-77
2022/08/25 03:55:14;;;;;;;;;;;19.60;91.50;;;;;;4964590;28;20021;-76
2022/08/25 03:57:41;;;;;;;;;;;19.60;91.50;;;;;;4947708;28;19927;-76
2022/08/25 04:00:10;;;;;;;;;;;19.60;91.50;;;;;;4944790;28;20017;-76
2022/08/25 04:02:40;;;;;;;;;;;19.60;91.60;;;;;;4947443;28;19974;-76
2022/08/25 04:05:08;;;;;;;;;;;19.60;91.60;;;;;;4947009;28;19930;-76
2022/08/25 04:07:34;;;;;;;;;;;19.50;91.60;;;;;;4941622;28;19930;-76
2022/08/25 04:10:01;;;;;;;;;;;19.50;91.60;;;;;;4947631;28;20021;-76
2022/08/25 04:12:29;;;;;;;;;;;19.50;91.60;;;;;;4941482;28;20047;-76
2022/08/25 04:14:57;;;;;;;;;;;19.50;91.70;;;;;;4940530;28;19930;-76
2022/08/25 04:17:23;;;;;;;;;;;19.50;91.70;;;;;;4949168;28;19934;-76
2022/08/25 04:19:50;;;;;;;;;;;19.40;91.70;;;;;;4947716;28;20078;-76
2022/08/25 04:22:18;;;;;;;;;;;19.40;91.60;;;;;;4940000;28;19927;-76
2022/08/25 04:24:45;;;;;;;;;;;19.40;91.60;;;;;;4945759;28;19933;-76
2022/08/25 04:27:11;;;;;;;;;;;19.40;91.60;;;;;;4944196;28;20412;-76
2022/08/25 04:29:40;;;;;;;;;;;19.40;91.60;;;;;;4943990;28;20332;-76
2022/08/25 04:32:06;;;;;;;;;;;19.40;91.60;;;;;;4944230;28;19989;-76
2022/08/25 04:34:33;;;;;;;;;;;19.40;91.60;;;;;;4961058;28;19934;-76
2022/08/25 04:37:01;;;;;;;;;;;19.30;91.60;;;;;;4944126;28;19926;-75
2022/08/25 04:39:28;;;;;;;;;;;19.30;91.50;;;;;;4947497;28;19958;-76
2022/08/25 04:41:55;;;;;;;;;;;19.30;91.50;;;;;;4943297;28;20037;-76
2022/08/25 04:44:22;;;;;;;;;;;19.30;91.50;;;;;;4943387;28;20419;-76
2022/08/25 04:46:50;;;;;;;;;;;19.30;91.50;;;;;;4947631;28;19977;-75
2022/08/25 04:49:17;;;;;;;;;;;19.30;91.50;;;;;;4931849;28;19930;-76
2022/08/25 04:51:44;;;;;;;;;;;19.30;91.60;;;;;;4944822;28;20009;-76
2022/08/25 04:54:12;;;;;;;;;;;19.20;91.60;;;;;;4957410;28;19931;-76
2022/08/25 04:56:39;;;;;;;;;;;19.20;91.60;;;;;;4928681;28;20025;-76
2022/08/25 04:59:07;;;;;;;;;;;19.20;91.60;;;;;;4925590;28;20457;-76
2022/08/25 05:01:35;;;;;;;;;;;19.20;91.70;;;;;;4941464;28;19926;-75
2022/08/25 05:04:05;;;;;;;;;;;19.10;91.70;;;;;;4931507;28;19926;-76
2022/08/25 05:06:32;;;;;;;;;;;19.10;91.70;;;;;;4947932;28;20346;-76
2022/08/25 05:09:00;;;;;;;;;;;19.10;91.60;;;;;;4944973;28;19966;-76
2022/08/25 05:11:27;;;;;;;;;;;19.10;91.60;;;;;;4932210;28;19935;-76
2022/08/25 05:13:55;;;;;;;;;;;19.10;91.70;;;;;;4939484;28;20411;-76
2022/08/25 05:16:23;;;;;;;;;;;19.10;91.60;;;;;;4959107;28;20056;-76
2022/08/25 05:18:50;;;;;;;;;;;19.00;91.50;;;;;;4943786;28;19957;-76
2022/08/25 05:21:19;;;;;;;;;;;19.00;91.50;;;;;;4937498;28;20811;-75
2022/08/25 05:23:46;;;;;;;;;;;19.00;91.50;;;;;;4947469;28;19926;-76
2022/08/25 05:26:14;;;;;;;;;;;19.00;91.40;;;;;;4925404;28;20025;-75
2022/08/25 05:28:41;;;;;;;;;;;19.00;91.50;;;;;;4939888;28;19938;-76
2022/08/25 05:31:09;;;;;;;;;;;19.00;91.40;;;;;;4934623;28;19943;-76
2022/08/25 05:33:37;;;;;;;;;;;18.90;91.40;;;;;;4944217;28;19926;-76
2022/08/25 05:36:04;;;;;;;;;;;18.90;91.40;;;;;;4946229;28;20029;-76
2022/08/25 05:38:33;;;;;;;;;;;18.90;91.50;;;;;;4949289;28;20030;-76
2022/08/25 05:41:01;;;;;;;;;;;18.90;91.50;;;;;;4940879;28;19927;-76
2022/08/25 05:43:28;;;;;;;;;;;18.90;91.40;;;;;;4942864;28;19957;-76
2022/08/25 05:45:55;;;;;;;;;;;18.90;91.40;;;;;;4926113;28;19935;-76
2022/08/25 05:48:22;;;;;;;;;;;18.90;91.40;;;;;;4952196;28;20361;-76
2022/08/25 05:50:52;;;;;;;;;;;18.80;91.30;;;;;;4944275;28;20020;-76
2022/08/25 05:53:19;;;;;;;;;;;18.80;91.50;;;;;;4936286;28;19958;-76
2022/08/25 05:55:50;;;;;;;;;;;18.70;92.30;;;;;;4937467;28;21633;-76
2022/08/25 05:58:17;;;;;;;;;;;18.60;92.30;;;;;;4926774;28;20462;-76
2022/08/25 06:00:44;;;;;;;;;;;18.60;92.50;;;;;;4949988;28;19931;-76
2022/08/25 06:03:10;;;;;;;;;;;18.50;92.60;;;;;;4937908;28;19935;-76
2022/08/25 06:05:37;;;;;;;;;;;18.50;92.80;;;;;;4926137;28;19937;-76
2022/08/25 06:08:04;;;;;;;;;;;18.50;92.90;;;;;;4936434;28;20244;-76
2022/08/25 06:10:31;;;;;;;;;;;18.50;93.00;;;;;;4944807;28;20304;-76
2022/08/25 06:12:59;;;;;;;;;;;18.50;93.00;;;;;;4924976;28;19930;-76
2022/08/25 06:15:26;;;;;;;;;;;18.50;93.10;;;;;;4941793;28;19926;-76
2022/08/25 06:17:55;;;;;;;;;;;18.50;93.10;;;;;;4951265;28;19935;-76
2022/08/25 06:20:23;;;;;;;;;;;18.50;93.10;;;;;;4940014;28;20018;-76
2022/08/25 06:22:51;;;;;;;;;;;18.50;93.20;;;;;;4936580;28;19930;-76
2022/08/25 06:25:19;;;;;;;;;;;18.60;93.40;;;;;;4941581;28;20017;-76
2022/08/25 06:27:46;;;;;;;;;;;18.60;93.60;;;;;;4918992;28;19933;-76
2022/08/25 06:30:15;;;;;;;;;;;18.60;93.60;;;;;;4933897;28;19926;-76
2022/08/25 06:32:43;;;;;;;;;;;18.60;93.60;;;;;;4939003;28;19952;-75
2022/08/25 06:35:12;;;;;;;;;;;18.60;93.80;;;;;;4919224;28;19927;-76
2022/08/25 06:37:40;;;;;;;;;;;18.70;94.00;;;;;;4932930;28;19958;-76
2022/08/25 06:40:07;;;;;;;;;;;18.70;94.30;;;;;;4937029;28;19934;-76
2022/08/25 06:42:34;;;;;;;;;;;18.70;94.40;;;;;;4922785;28;19934;-76
2022/08/25 06:45:01;;;;;;;;;;;18.70;94.50;;;;;;4937177;28;19935;-76
2022/08/25 06:47:30;;;;;;;;;;;18.70;94.60;;;;;;4945213;28;19930;-78
2022/08/25 06:49:57;;;;;;;;;;;18.80;94.80;;;;;;4954317;28;19930;-76
2022/08/25 06:52:24;;;;;;;;;;;18.80;95.10;;;;;;4939207;28;19934;-76
2022/08/25 06:54:51;;;;;;;;;;;18.80;95.20;;;;;;4937977;28;20014;-76
2022/08/25 06:57:19;;;;;;;;;;;18.80;95.30;;;;;;4939654;28;20404;-75
2022/08/25 06:59:45;;;;;;;;;;;18.90;95.40;;;;;;4944289;28;20432;-76
2022/08/25 07:02:12;;;;;;;;;;;18.90;95.40;;;;;;4940908;28;20048;-75
2022/08/25 07:04:41;;;;;;;;;;;18.90;95.50;;;;;;4944300;28;19973;-76
2022/08/25 07:07:08;;;;;;;;;;;18.90;95.60;;;;;;4925340;28;19934;-76
2022/08/25 07:09:34;;;;;;;;;;;18.90;95.80;;;;;;4939114;28;19998;-77
2022/08/25 07:12:03;;;;;;;;;;;19.00;95.90;;;;;;4947387;28;19933;-79
2022/08/25 07:14:30;;;;;;;;;;;19.00;95.90;;;;;;4942978;28;19950;-75
2022/08/25 07:16:57;;;;;;;;;;;19.00;95.90;;;;;;4929802;28;20053;-76
2022/08/25 07:19:24;;;;;;;;;;;19.00;96.00;;;;;;4943305;28;20468;-78
2022/08/25 07:21:53;;;;;;;;;;;19.10;98.50;;;;;;4923442;28;19930;-77
2022/08/25 07:24:20;;;;;;;;;;;19.30;99.30;;;;;;4912096;28;19934;-77
2022/08/25 07:26:47;;;;;;;;;;;19.30;99.50;;;;;;4930456;28;19930;-75
2022/08/25 07:29:15;;;;;;;;;;;19.40;99.50;;;;;;4932243;28;20005;-75
2022/08/25 07:31:42;;;;;;;;;;;19.40;99.50;;;;;;4928547;28;20310;-74
2022/08/25 07:36:56;;;;;;;;;;;19.60;99.90;;;;;;4927931;28;19923;-75
2022/08/25 07:39:23;;;;;;;;;;;19.60;99.60;;;;;;4909389;28;19927;-75
2022/08/25 07:41:50;;;;;;;;;;;19.60;99.80;;;;;;4935594;28;20192;-74
2022/08/25 07:44:17;;;;;;;;;;;19.70;99.80;;;;;;4947643;28;19931;-75
2022/08/25 07:46:45;;;;;;;;;;;19.70;99.60;;;;;;4935332;28;20532;-75
2022/08/25 07:49:12;;;;;;;;;;;19.80;99.80;;;;;;4936202;28;20416;-76
2022/08/25 07:51:39;;;;;;;;;;;19.70;99.70;;;;;;4947968;28;20069;-75
2022/08/25 07:54:08;;;;;;;;;;;19.80;99.60;;;;;;4933156;28;20013;-77
2022/08/25 07:56:34;;;;;;;;;;;19.80;99.40;;;;;;4927695;28;19974;-76
2022/08/25 07:59:01;;;;;;;;;;;19.80;99.30;;;;;;4918051;28;20416;-76
2022/08/25 08:01:28;;;;;;;;;;;19.80;99.30;;;;;;4933172;28;19998;-76
2022/08/25 08:03:55;;;;;;;;;;;19.80;99.40;;;;;;4941033;28;19954;-76
2022/08/25 08:06:23;;;;;;;;;;;19.80;99.30;;;;;;4936176;28;19926;-76
2022/08/25 08:08:52;;;;;;;;;;;19.70;99.40;;;;;;4937672;28;20301;-75
2022/08/25 08:11:21;;;;;;;;;;;19.80;99.60;;;;;;4944893;28;20396;-76
2022/08/25 08:13:48;;;;;;;;;;;19.80;99.60;;;;;;4942495;28;19934;-79
2022/08/25 08:16:17;;;;;;;;;;;19.90;99.60;;;;;;4941688;28;19941;-76
2022/08/25 08:18:45;;;;;;;;;;;19.90;99.50;;;;;;4933887;28;20464;-76
2022/08/25 08:21:13;;;;;;;;;;;19.90;99.60;;;;;;4941331;28;19936;-76
2022/08/25 08:23:40;;;;;;;;;;;20.10;99.90;;;;;;4923885;28;20572;-74
2022/08/25 08:26:07;;;;;;;;;;;20.20;99.80;;;;;;4934576;28;19937;-74
2022/08/25 08:28:35;;;;;;;;;;;20.30;99.60;;;;;;4940083;28;20017;-75
2022/08/25 08:31:02;;;;;;;;;;;20.40;99.90;;;;;;4934729;28;19943;-76
2022/08/25 08:33:29;;;;;;;;;;;20.40;99.80;;;;;;4938703;28;20001;-75
2022/08/25 08:35:57;;;;;;;;;;;20.50;99.60;;;;;;4937340;28;19942;-76
2022/08/25 08:38:24;;;;;;;;;;;20.50;99.70;;;;;;4949080;28;20058;-75
2022/08/25 08:43:41;;;;;;;;;;;20.50;99.30;;;;;;4924892;28;20278;-75
2022/08/25 08:46:09;;;;;;;;;;;20.60;99.50;;;;;;4911331;28;21350;-76
2022/08/25 08:48:42;;;;;;;;;;;20.60;99.50;;;;;;4921011;28;19989;-76
2022/08/25 08:51:15;;;;;;;;;;;20.50;99.60;;;;;;4926768;28;19927;-76
2022/08/25 08:53:45;;;;;;;;;;;20.70;99.70;;;;;;4936973;28;19973;-75
2022/08/25 08:56:14;;;;;;;;;;;20.70;99.60;;;;;;4918358;28;19938;-76
2022/08/25 08:58:44;;;;;;;;;;;20.80;99.70;;;;;;4916941;28;20467;-75
2022/08/25 09:01:13;;;;;;;;;;;20.80;99.60;;;;;;4931111;28;20428;-76
2022/08/25 09:03:41;;;;;;;;;;;20.80;99.80;;;;;;4953702;28;20337;-74
2022/08/25 09:06:10;;;;;;;;;;;20.90;99.50;;;;;;4949506;28;19982;-76
2022/08/25 09:08:37;;;;;;;;;;;20.90;99.40;;;;;;4936588;28;19934;-76
2022/08/25 09:11:08;;;;;;;;;;;21.00;99.20;;;;;;4939509;28;19961;-75
2022/08/25 09:13:42;;;;;;;;;;;21.00;99.40;;;;;;4941437;28;19926;-75
2022/08/25 09:21:30;;;;;;;;;;;21.00;99.00;;;;;;4935025;28;20304;-75
2022/08/25 09:24:06;;;;;;;;;;;21.00;99.10;;;;;;4936421;28;20344;-75
2022/08/25 09:26:37;;;;;;;;;;;20.90;99.10;;;;;;4930571;28;20397;-74
2022/08/25 09:29:08;;;;;;;;;;;20.90;99.10;;;;;;4915906;28;20001;-74
2022/08/25 09:31:38;;;;;;;;;;;21.00;99.30;;;;;;4931609;28;19978;-75
2022/08/25 09:34:06;;;;;;;;;;;20.90;99.30;;;;;;4929575;28;19993;-75
2022/08/25 09:36:34;;;;;;;;;;;21.00;99.20;;;;;;4932473;28;19982;-75
2022/08/25 09:39:01;;;;;;;;;;;21.00;99.30;;;;;;4912228;28;19930;-75
2022/08/25 09:41:43;;;;;;;;;;;21.00;99.20;;;;;;4924293;29;19939;-75
2022/08/25 09:44:16;;;;;;;;;;;21.20;99.30;;;;;;4925101;28;20285;-74
2022/08/25 09:46:54;;;;;;;;;;;21.20;98.80;;;;;;4933033;28;19947;-74
2022/08/25 09:49:21;;;;;;;;;;;21.30;98.80;;;;;;4930312;28;20397;-75
2022/08/25 09:51:47;;;;;;;;;;;21.20;98.60;;;;;;4935786;28;19965;-75
2022/08/25 09:54:18;;;;;;;;;;;21.10;98.60;;;;;;4936919;28;20390;-75
2022/08/25 09:56:49;;;;;;;;;;;21.00;98.60;;;;;;4932542;28;19985;-75
2022/08/25 09:59:20;;;;;;;;;;;21.00;98.60;;;;;;4937317;28;20040;-75
2022/08/25 10:01:50;;;;;;;;;;;21.00;98.60;;;;;;4934886;28;19930;-75
2022/08/25 10:04:25;;;;;;;;;;;21.00;98.60;;;;;;4918187;29;20000;-74
2022/08/25 10:06:51;;;;;;;;;;;21.00;98.60;;;;;;4937193;28;19993;-75
2022/08/25 10:09:25;;;;;;;;;;;20.90;98.60;;;;;;4921788;29;19927;-75
2022/08/25 10:11:52;;;;;;;;;;;20.90;98.60;;;;;;4923508;28;19934;-74
2022/08/25 10:14:21;;;;;;;;;;;20.90;98.50;;;;;;4937619;28;20041;-76
2022/08/25 10:16:49;;;;;;;;;;;20.90;98.50;;;;;;4917956;28;19977;-75
2022/08/25 10:19:23;;;;;;;;;;;20.90;98.40;;;;;;4931626;28;20028;-75
2022/08/25 10:22:02;;;;;;;;;;;20.90;98.40;;;;;;4936585;28;19934;-75
2022/08/25 10:24:29;;;;;;;;;;;20.90;98.40;;;;;;4920479;29;19933;-74
2022/08/25 10:27:00;;;;;;;;;;;20.90;98.30;;;;;;4931664;28;19927;-74
2022/08/25 10:29:33;;;;;;;;;;;20.90;98.30;;;;;;4937513;28;19927;-75
2022/08/25 10:32:04;;;;;;;;;;;20.90;98.30;;;;;;4918193;28;19933;-75
2022/08/25 10:34:37;;;;;;;;;;;20.90;98.30;;;;;;4936750;28;19934;-75
2022/08/25 10:37:10;;;;;;;;;;;21.00;98.30;;;;;;4919214;28;19956;-75
2022/08/25 10:39:39;;;;;;;;;;;21.00;98.30;;;;;;4920655;29;19927;-75
2022/08/25 10:42:15;;;;;;;;;;;21.00;98.30;;;;;;4936444;28;19934;-75
2022/08/25 10:47:42;;;;;;;;;;;21.00;98.30;;;;;;4929547;28;20028;-75
2022/08/25 10:50:14;;;;;;;;;;;21.00;98.30;;;;;;4941040;28;19926;-75
2022/08/25 10:52:50;;;;;;;;;;;21.00;98.30;;;;;;4938592;28;19938;-75
2022/08/25 10:55:18;;;;;;;;;;;21.00;98.30;;;;;;4920892;29;19931;-75
2022/08/25 10:57:51;;;;;;;;;;;21.00;98.30;;;;;;4943171;28;19982;-75
2022/08/25 11:00:21;;;;;;;;;;;21.00;98.30;;;;;;4936841;28;19930;-74
2022/08/25 11:03:10;;;;;;;;;;;21.00;98.30;;;;;;4934987;28;19958;-76
2022/08/25 11:05:40;;;;;;;;;;;21.00;98.20;;;;;;4937109;28;19926;-75
2022/08/25 11:08:09;;;;;;;;;;;21.00;98.20;;;;;;4937195;28;19926;-75
2022/08/25 11:10:39;;;;;;;;;;;21.00;98.20;;;;;;4939612;28;19933;-75
2022/08/25 11:13:08;;;;;;;;;;;21.00;98.30;;;;;;4922233;28;20349;-75
2022/08/25 11:15:37;;;;;;;;;;;21.10;98.20;;;;;;4932708;28;19941;-75
2022/08/25 11:18:08;;;;;;;;;;;21.10;98.20;;;;;;4936026;28;19933;-75
2022/08/25 11:20:39;;;;;;;;;;;21.10;98.50;;;;;;4924884;29;20401;-75
2022/08/25 11:23:11;;;;;;;;;;;21.10;98.20;;;;;;4915904;28;19930;-75
2022/08/25 11:25:41;;;;;;;;;;;21.10;98.20;;;;;;4922553;29;19931;-75
2022/08/25 11:28:11;;;;;;;;;;;21.10;98.20;;;;;;4929172;28;20361;-75
2022/08/25 11:30:39;;;;;;;;;;;21.10;98.20;;;;;;4919151;29;19934;-75
2022/08/25 11:33:07;;;;;;;;;;;21.10;98.20;;;;;;4939627;28;19931;-74
2022/08/25 11:35:36;;;;;;;;;;;21.10;98.20;;;;;;4933676;28;19927;-75
2022/08/25 11:38:14;;;;;;;;;;;21.10;98.10;;;;;;4920357;28;19935;-75
2022/08/25 11:40:44;;;;;;;;;;;21.20;98.20;;;;;;4939752;28;19934;-75
2022/08/25 11:43:16;;;;;;;;;;;21.20;98.10;;;;;;4938055;28;20298;-74
2022/08/25 11:46:01;;;;;;;;;;;21.20;98.10;;;;;;4921260;28;19935;-74
2022/08/25 11:48:41;;;;;;;;;;;21.20;98.00;;;;;;4934457;28;19971;-75
2022/08/25 11:51:09;;;;;;;;;;;21.20;97.90;;;;;;4939041;28;19953;-75
2022/08/25 11:53:37;;;;;;;;;;;21.20;97.90;;;;;;4934588;28;19930;-75
2022/08/25 11:56:05;;;;;;;;;;;21.20;97.80;;;;;;4939886;28;19933;-74
2022/08/25 11:58:43;;;;;;;;;;;21.20;97.80;;;;;;4921540;29;20287;-75
2022/08/25 12:01:12;;;;;;;;;;;21.20;97.70;;;;;;4936048;28;19935;-75
2022/08/25 12:03:59;;;;;;;;;;;21.30;97.90;;;;;;4936355;28;20386;-77
2022/08/25 12:06:29;;;;;;;;;;;21.30;97.90;;;;;;4932354;28;19981;-73
2022/08/25 12:09:17;;;;;;;;;;;21.30;98.00;;;;;;4921785;28;19935;-74
2022/08/25 12:11:48;;;;;;;;;;;21.30;97.90;;;;;;4938350;28;19931;-74
2022/08/25 12:14:17;;;;;;;;;;;21.40;97.80;;;;;;4935809;28;20294;-73
2022/08/25 12:17:00;;;;;;;;;;;21.40;97.80;;;;;;4921486;28;19941;-74
2022/08/25 12:19:46;;;;;;;;;;;21.40;97.70;;;;;;4932751;28;19927;-74
2022/08/25 12:22:32;;;;;;;;;;;21.40;97.80;;;;;;4921974;29;19966;-76
2022/08/25 12:25:05;;;;;;;;;;;21.50;97.70;;;;;;4920805;28;20321;-75
2022/08/25 12:27:36;;;;;;;;;;;21.50;97.70;;;;;;4920902;29;19934;-74
2022/08/25 12:30:10;;;;;;;;;;;21.50;97.70;;;;;;4934515;28;20037;-73
2022/08/25 12:32:47;;;;;;;;;;;21.50;97.60;;;;;;4935078;28;19939;-75
2022/08/25 12:35:25;;;;;;;;;;;21.60;97.60;;;;;;4937727;28;19990;-74
2022/08/25 12:37:54;;;;;;;;;;;21.60;97.60;;;;;;4932591;28;19938;-75
2022/08/25 12:40:24;;;;;;;;;;;21.60;97.60;;;;;;4922348;29;19935;-74
2022/08/25 12:43:00;;;;;;;;;;;21.70;97.60;;;;;;4937586;28;19939;-74
2022/08/25 12:45:35;;;;;;;;;;;21.70;97.50;;;;;;4937293;28;19957;-74
2022/08/25 12:48:21;;;;;;;;;;;21.70;97.50;;;;;;4914883;28;19934;-74
2022/08/25 12:50:49;;;;;;;;;;;21.80;97.50;;;;;;4935733;28;19935;-74
2022/08/25 12:53:19;;;;;;;;;;;21.80;97.50;;;;;;4938663;28;20006;-75
2022/08/25 12:55:50;;;;;;;;;;;21.80;97.50;;;;;;4929610;28;20333;-74
2022/08/25 12:58:17;;;;;;;;;;;21.90;97.50;;;;;;4935220;28;20009;-73
2022/08/25 13:00:54;;;;;;;;;;;21.90;97.40;;;;;;4941182;28;20708;-74
2022/08/25 13:03:34;;;;;;;;;;;21.90;97.40;;;;;;4916484;29;19975;-74
2022/08/25 13:06:28;;;;;;;;;;;22.00;97.50;;;;;;4925269;28;20026;-73
2022/08/25 13:09:09;;;;;;;;;;;22.00;97.40;;;;;;4892458;28;19939;-74
2022/08/25 13:11:42;;;;;;;;;;;22.00;97.40;;;;;;4924928;29;19974;-74
2022/08/25 13:14:16;;;;;;;;;;;22.10;97.50;;;;;;4942445;28;19933;-74
2022/08/25 13:16:51;;;;;;;;;;;22.10;97.40;;;;;;4931593;28;20044;-73
2022/08/25 13:19:19;;;;;;;;;;;22.20;97.40;;;;;;4917557;29;19970;-74
2022/08/25 13:21:46;;;;;;;;;;;22.20;97.30;;;;;;4930294;28;20003;-74
2022/08/25 13:24:17;;;;;;;;;;;22.30;97.40;;;;;;4937091;28;20349;-73
2022/08/25 13:26:46;;;;;;;;;;;22.30;97.40;;;;;;4933231;28;20448;-75
2022/08/25 13:29:15;;;;;;;;;;;22.30;97.30;;;;;;4935588;28;19926;-74
2022/08/25 13:31:50;;;;;;;;;;;22.40;97.40;;;;;;4912252;29;19926;-75
2022/08/25 13:34:19;;;;;;;;;;;22.40;97.30;;;;;;4929476;29;19934;-75
2022/08/25 13:39:33;;;;;;;;;;;22.50;97.30;;;;;;4919764;29;19927;-73
2022/08/25 13:42:02;;;;;;;;;;;22.60;97.30;;;;;;4934318;28;19931;-74
2022/08/25 13:44:30;;;;;;;;;;;22.60;97.20;;;;;;4921575;29;19926;-75
2022/08/25 13:47:08;;;;;;;;;;;22.70;97.30;;;;;;4918596;28;19935;-75
2022/08/25 13:49:35;;;;;;;;;;;22.70;97.30;;;;;;4937551;28;19935;-75
2022/08/25 13:52:02;;;;;;;;;;;22.80;97.30;;;;;;4935098;28;19931;-75
2022/08/25 13:54:30;;;;;;;;;;;22.80;97.30;;;;;;4937756;28;20381;-74
2022/08/25 13:57:06;;;;;;;;;;;22.90;97.20;;;;;;4920471;28;20378;-75
2022/08/25 13:59:35;;;;;;;;;;;22.90;97.30;;;;;;4915620;29;20377;-74
2022/08/25 14:02:03;;;;;;;;;;;22.90;97.30;;;;;;4933015;28;19930;-75
2022/08/25 14:04:31;;;;;;;;;;;23.00;97.30;;;;;;4936985;28;19941;-75
2022/08/25 14:07:09;;;;;;;;;;;23.00;97.20;;;;;;4937927;28;21003;-75
2022/08/25 14:09:38;;;;;;;;;;;23.10;97.20;;;;;;4925442;29;19930;-74
2022/08/25 14:12:06;;;;;;;;;;;23.10;97.20;;;;;;4938367;28;20469;-75
2022/08/25 14:14:34;;;;;;;;;;;23.20;97.30;;;;;;4941999;28;19982;-75
2022/08/25 14:17:03;;;;;;;;;;;23.20;97.20;;;;;;4931153;28;19931;-75
2022/08/25 14:19:30;;;;;;;;;;;23.30;97.20;;;;;;4932784;28;19933;-75
2022/08/25 14:22:00;;;;;;;;;;;23.30;97.20;;;;;;4935432;28;19935;-75
2022/08/25 14:24:32;;;;;;;;;;;23.30;97.10;;;;;;4941434;28;19933;-75
2022/08/25 14:26:59;;;;;;;;;;;23.40;97.10;;;;;;4918598;28;19937;-75
2022/08/25 14:29:27;;;;;;;;;;;23.40;97.10;;;;;;4938813;28;19927;-75
2022/08/25 14:31:54;;;;;;;;;;;23.40;97.10;;;;;;4911853;28;20390;-74
2022/08/25 14:34:22;;;;;;;;;;;23.50;97.00;;;;;;4930935;28;19926;-75
2022/08/25 14:36:49;;;;;;;;;;;23.50;97.00;;;;;;4916020;28;19931;-75
2022/08/25 14:39:16;;;;;;;;;;;23.50;97.00;;;;;;4942080;28;19926;-75
2022/08/25 14:41:48;;;;;;;;;;;23.60;96.90;;;;;;4919707;28;19941;-74
2022/08/25 14:44:15;;;;;;;;;;;23.60;97.10;;;;;;4928054;29;19926;-75
2022/08/25 14:46:45;;;;;;;;;;;23.60;96.70;;;;;;4922878;29;20393;-76
2022/08/25 14:49:15;;;;;;;;;;;23.60;96.60;;;;;;4918879;29;20274;-75
2022/08/25 14:51:42;;;;;;;;;;;23.70;96.70;;;;;;4934931;28;19927;-75
2022/08/25 14:54:12;;;;;;;;;;;23.70;96.70;;;;;;4931424;28;20018;-75